Time;durP1;ratioP1;P1;durP2;ratioP2;P2;SDS_P1;SDS_P2;PMS_P1;PMS_P2;Temp;Humidity;BMP_temperature;BMP_pressure;BME280_temperature;BME280_humidity;BME280_pressure;Samples;Min_cycle;Max_cycle;Signal;HPM_P1;HPM_P2
2023/10/11 00:01:38;;;;;;;24.20;12.02;;;;;;;13.10;63.04;100483.78;7606586;32;39205;-79
2023/10/11 00:05:55;;;;;;;23.05;10.88;;;;;;;13.20;62.55;100485.72;7606649;32;37294;-79
2023/10/11 00:10:12;;;;;;;24.48;11.57;;;;;;;13.28;61.56;100487.91;7606633;32;40006;-79
2023/10/11 00:14:29;;;;;;;22.70;10.55;;;;;;;13.18;61.57;100487.91;7614493;32;40575;-79
2023/10/11 00:18:46;;;;;;;28.15;12.65;;;;;;;13.21;61.42;100475.56;7632511;32;38115;-79
2023/10/11 00:23:02;;;;;;;34.65;12.77;;;;;;;12.83;62.35;100481.28;7632620;32;37007;-78
2023/10/11 00:27:19;;;;;;;23.62;11.60;;;;;;;12.98;63.22;100482.41;7632699;32;39399;-79
2023/10/11 00:31:35;;;;;;;30.02;12.68;;;;;;;12.93;63.96;100477.72;7632405;32;39985;-79
2023/10/11 00:35:52;;;;;;;23.23;11.07;;;;;;;12.92;63.98;100468.72;7632420;32;37757;-80
2023/10/11 00:40:13;;;;;;;24.63;11.57;;;;;;;13.02;63.64;100465.19;7632410;32;37941;-79
2023/10/11 00:44:32;;;;;;;21.50;11.25;;;;;;;12.98;63.63;100460.50;7632251;32;40214;-79
2023/10/11 00:49:00;;;;;;;26.17;11.80;;;;;;;12.86;64.23;100456.09;7632342;32;40170;-80
2023/10/11 00:53:18;;;;;;;24.75;11.63;;;;;;;12.95;64.23;100456.38;7642514;32;37781;-79
2023/10/11 00:57:36;;;;;;;28.25;13.02;;;;;;;13.03;64.13;100447.63;7631280;32;36882;-79
2023/10/11 01:01:55;;;;;;;23.50;10.98;;;;;;;12.89;64.88;100452.81;7643215;32;39477;-79
2023/10/11 01:06:12;;;;;;;25.95;10.95;;;;;;;12.95;64.59;100457.22;7642068;32;39721;-79
2023/10/11 01:10:29;;;;;;;27.55;11.20;;;;;;;13.01;64.05;100463.53;7631957;32;37831;-79
2023/10/11 01:14:56;;;;;;;24.55;11.35;;;;;;;13.24;63.18;100458.63;7630470;32;37142;-81
2023/10/11 01:19:16;;;;;;;28.35;12.63;;;;;;;13.25;62.79;100455.59;7632012;32;40112;-80
2023/10/11 01:23:35;;;;;;;25.55;11.18;;;;;;;12.92;63.57;100457.75;7631956;32;39643;-78
2023/10/11 01:27:52;;;;;;;26.23;12.20;;;;;;;12.93;63.96;100455.84;7630265;32;37978;-79
2023/10/11 01:32:10;;;;;;;28.87;11.52;;;;;;;12.94;63.88;100460.22;7631694;32;37155;-79
2023/10/11 01:36:26;;;;;;;27.75;11.88;;;;;;;12.97;63.80;100465.16;7631750;32;40103;-79
2023/10/11 01:40:43;;;;;;;19.67;11.10;;;;;;;12.88;63.99;100467.63;7631653;32;39593;-79
2023/10/11 01:45:00;;;;;;;20.85;9.93;;;;;;;13.09;63.06;100459.41;7631534;32;38110;-79
2023/10/11 01:49:17;;;;;;;22.42;10.00;;;;;;;13.24;62.09;100466.81;7631484;32;37343;-77
2023/10/11 01:53:35;;;;;;;25.12;11.55;;;;;;;13.12;62.02;100456.12;7631315;32;40063;-80
2023/10/11 01:57:52;;;;;;;24.48;11.60;;;;;;;13.07;62.24;100462.44;7631579;32;38985;-79
2023/10/11 02:02:10;;;;;;;21.00;10.77;;;;;;;12.99;62.27;100460.25;7606260;32;38572;-79
2023/10/11 02:06:39;;;;;;;23.20;12.55;;;;;;;13.11;61.90;100470.94;7605147;32;37653;-78
2023/10/11 02:10:55;;;;;;;24.02;11.32;;;;;;;12.89;62.25;100465.69;7604863;32;39425;-80
2023/10/11 02:15:30;;;;;;;24.85;12.18;;;;;;;12.72;62.71;100472.22;7604617;32;40837;-80
2023/10/11 02:19:46;;;;;;;23.45;11.63;;;;;;;12.86;62.24;100466.22;7604797;32;37861;-79
2023/10/11 02:24:04;;;;;;;25.12;11.95;;;;;;;12.92;61.63;100471.44;7604710;32;37349;-79
2023/10/11 02:28:21;;;;;;;25.23;12.55;;;;;;;12.63;62.47;100460.16;7604528;32;40188;-79
2023/10/11 02:32:41;;;;;;;23.87;12.73;;;;;;;12.66;62.55;100467.00;7604503;32;40562;-80
2023/10/11 02:37:03;;;;;;;25.20;11.90;;;;;;;12.69;62.40;100475.47;7604302;32;37801;-80
2023/10/11 02:41:25;;;;;;;24.37;12.20;;;;;;;12.88;61.82;100469.50;7604267;32;37159;-80
2023/10/11 02:45:42;;;;;;;24.83;12.07;;;;;;;12.99;61.23;100478.56;7604229;32;39445;-79
2023/10/11 02:50:04;;;;;;;25.92;12.50;;;;;;;12.73;62.08;100465.66;7608219;32;40612;-79
2023/10/11 02:54:24;;;;;;;25.27;12.30;;;;;;;12.61;62.75;100467.81;7630169;32;38883;-78
2023/10/11 02:58:40;;;;;;;26.17;12.50;;;;;;;12.75;62.48;100466.19;7640707;32;37494;-79
2023/10/11 03:02:57;;;;;;;24.50;13.27;;;;;;;12.74;62.68;100470.03;7629819;32;39586;-79
2023/10/11 03:07:21;;;;;;;22.77;11.80;;;;;;;12.56;63.33;100465.88;7629607;32;39933;-80
2023/10/11 03:11:45;;;;;;;26.87;12.93;;;;;;;12.64;63.35;100456.34;7612841;32;37770;-79
2023/10/11 03:16:03;;;;;;;25.02;12.68;;;;;;;12.73;63.34;100460.19;7603012;32;37351;-80
2023/10/11 03:20:36;;;;;;;23.25;11.25;;;;;;;12.69;63.69;100470.00;7604467;32;39390;-79
2023/10/11 03:24:59;;;;;;;22.73;12.13;;;;;;;12.94;63.01;100468.44;7607130;32;39891;-79
2023/10/11 03:29:21;;;;;;;23.38;11.52;;;;;;;12.89;63.48;100479.38;7610040;32;37799;-79
2023/10/11 03:33:37;;;;;;;24.05;12.32;;;;;;;12.82;63.99;100468.69;7633249;32;37949;-80
2023/10/11 03:37:57;;;;;;;26.67;12.35;;;;;;;12.88;63.97;100455.84;7632898;32;39541;-79
2023/10/11 03:42:17;;;;;;;31.83;12.93;;;;;;;12.91;64.10;100455.28;7633056;32;40041;-79
2023/10/11 03:46:34;;;;;;;31.10;12.88;;;;;;;12.86;64.48;100447.06;7614292;32;38226;-79
2023/10/11 03:50:52;;;;;;;27.67;12.82;;;;;;;13.02;64.10;100446.00;7607124;32;36928;-80
2023/10/11 03:55:12;;;;;;;31.17;11.60;;;;;;;13.05;64.03;100450.94;7606924;32;39297;-79
2023/10/11 03:59:34;;;;;;;22.70;12.02;;;;;;;12.99;64.16;100468.44;7606726;32;40814;-79
2023/10/11 04:03:51;;;;;;;23.25;11.75;;;;;;;12.90;64.36;100453.63;7606905;32;38679;-78
2023/10/11 04:08:11;;;;;;;25.75;11.57;;;;;;;13.01;64.03;100459.97;7607112;32;35327;-78
2023/10/11 04:12:30;;;;;;;23.30;11.77;;;;;;;13.14;63.60;100464.91;7629081;32;39301;-80
2023/10/11 04:16:46;;;;;;;26.00;11.73;;;;;;;13.14;63.41;100453.94;7632528;32;40583;-78
2023/10/11 04:25:43;;;;;;;24.48;11.85;;;;;;;13.02;63.88;100470.66;7626333;32;38260;-79
2023/10/11 04:30:17;;;;;;;28.15;12.57;;;;;;;13.00;64.13;100470.06;7606531;32;39360;-80
2023/10/11 04:34:38;;;;;;;21.52;11.63;;;;;;;12.86;64.81;100468.97;7605501;32;40039;-79
2023/10/11 04:39:14;;;;;;;24.73;10.70;;;;;;;12.93;64.67;100475.00;7606238;32;38107;-79
2023/10/11 04:43:39;;;;;;;21.85;11.40;;;;;;;12.99;64.54;100464.88;7627251;32;38068;-79
2023/10/11 04:47:58;;;;;;;28.50;11.73;;;;;;;12.91;64.76;100455.28;7632340;32;39066;-79
2023/10/11 04:52:22;;;;;;;24.87;11.85;;;;;;;12.95;64.54;100451.75;7632322;32;40827;-81
2023/10/11 04:57:06;;;;;;;24.70;11.57;;;;;;;13.03;64.22;100458.59;7632092;32;38835;-80
2023/10/11 05:01:22;;;;;;;22.75;11.32;;;;;;;12.90;64.66;100461.84;7623380;32;37308;-79
2023/10/11 05:05:42;;;;;;;22.50;11.83;;;;;;;13.21;63.58;100459.16;7610826;32;39800;-77
2023/10/11 05:10:19;;;;;;;28.50;12.27;;;;;;;13.09;63.84;100462.16;7613147;32;40864;-77
2023/10/11 05:19:05;;;;;;;24.83;11.10;;;;;;;13.04;64.33;100462.97;7616587;32;36967;-78
2023/10/11 05:23:25;;;;;;;22.83;11.85;;;;;;;13.26;63.69;100467.37;7631940;32;39463;-78
2023/10/11 05:27:56;;;;;;;25.02;11.73;;;;;;;13.05;64.25;100472.81;7631861;32;40919;-79
2023/10/11 05:32:27;;;;;;;26.62;12.45;;;;;;;13.14;64.39;100475.84;7615094;32;38007;-79
2023/10/11 05:54:59;;;;;;;26.27;12.57;;;;;;;13.10;65.60;100497.47;7604850;32;38000;-79
2023/10/11 05:59:15;;;;;;;25.70;11.05;;;;;;;13.15;65.64;100500.22;7603562;32;40543;-79
2023/10/11 06:03:35;;;;;;;22.95;11.38;;;;;;;13.03;65.90;100502.38;7604228;32;39700;-80
2023/10/11 06:08:03;;;;;;;28.95;12.20;;;;;;;13.26;65.17;100508.44;7620924;32;38919;-80
2023/10/11 06:12:22;;;;;;;22.83;11.60;;;;;;;13.08;65.43;100509.78;7620360;32;37228;-79
2023/10/11 06:16:43;;;;;;;21.42;11.07;;;;;;;13.23;65.27;100517.19;7617128;32;39557;-80
2023/10/11 06:21:05;;;;;;;29.27;12.18;;;;;;;13.33;65.16;100522.72;7619063;32;39935;-82
2023/10/11 06:29:57;;;;;;;28.05;11.15;;;;;;;13.68;63.95;100515.63;7605217;32;38140;-80
2023/10/11 06:34:25;;;;;;;23.90;11.85;;;;;;;13.78;64.00;100507.41;7604216;32;39482;-80
2023/10/11 06:38:41;;;;;;;23.45;13.07;;;;;;;13.86;64.96;100515.03;7615981;32;257658;-69
2023/10/11 06:42:58;;;;;;;25.55;12.75;;;;;;;14.07;66.29;100517.75;7614032;32;38568;-80
2023/10/11 06:47:15;;;;;;;32.00;18.98;;;;;;;13.81;65.86;100522.44;7629408;32;36929;-81
2023/10/11 06:51:33;;;;;;;32.58;14.68;;;;;;;14.33;63.45;100512.19;7622001;32;40557;-82
2023/10/11 06:55:50;;;;;;;26.25;13.27;;;;;;;14.24;64.15;100521.00;7608204;32;39892;-81
2023/10/11 07:00:30;;;;;;;25.77;14.75;;;;;;;14.43;63.29;100523.12;7631344;32;37736;-81
2023/10/11 07:04:52;;;;;;;29.15;16.83;;;;;;;14.42;63.36;100522.31;7630666;32;37005;-81
2023/10/11 07:09:19;;;;;;;43.85;16.77;;;;;;;14.58;63.32;100536.84;7610898;32;39277;-77
2023/10/11 07:14:14;;;;;;;34.75;15.05;;;;;;;14.45;63.69;100530.00;7619798;32;40840;-82
2023/10/11 07:18:25;;;;;;;38.95;15.18;;;;;;;14.83;62.72;100521.34;7608540;32;38588;-84
2023/10/11 07:22:42;;;;;;;34.38;16.45;;;;;;;14.68;63.32;100526.91;7631206;32;38013;-84
2023/10/11 07:27:07;;;;;;;38.72;15.20;;;;;;;14.81;63.71;100526.31;7622789;32;39028;-84
2023/10/11 07:31:32;;;;;;;36.35;14.87;;;;;;;15.14;62.42;100527.50;7606978;32;40823;-82
2023/10/11 07:35:51;;;;;;;32.85;14.82;;;;;;;15.30;62.08;100538.41;7606856;32;37868;-84
2023/10/11 07:40:11;;;;;;;32.00;14.90;;;;;;;15.44;61.96;100525.66;7610612;32;37231;-85
2023/10/11 07:44:29;;;;;;;31.52;14.77;;;;;;;15.67;61.19;100528.75;7609149;32;39406;-83
2023/10/11 07:48:46;;;;;;;29.75;13.82;;;;;;;15.85;60.77;100530.00;7632277;32;39014;-85
2023/10/11 07:53:05;;;;;;;31.75;13.45;;;;;;;15.68;61.23;100520.22;7632285;32;37126;-84
2023/10/11 07:57:22;;;;;;;30.58;14.07;;;;;;;16.20;60.03;100528.03;7630137;32;36869;-86
2023/10/11 08:01:42;;;;;;;31.25;14.32;;;;;;;16.43;59.45;100518.94;7631935;32;41021;-85
2023/10/11 08:06:00;;;;;;;29.77;14.70;;;;;;;16.80;58.52;100514.63;7629582;32;40052;-84
2023/10/11 08:10:29;;;;;;;34.20;16.27;;;;;;;16.45;60.26;100521.41;7631457;32;38764;-83
2023/10/11 08:14:46;;;;;;;34.67;15.10;;;;;;;16.79;59.12;100510.22;7614661;32;35881;-83
2023/10/11 08:19:04;;;;;;;33.00;14.45;;;;;;;17.09;58.90;100508.19;7616441;32;39378;-83
2023/10/11 08:23:30;;;;;;;38.90;15.43;;;;;;;17.15;58.49;100508.94;7632494;32;39922;-81
2023/10/11 08:27:51;;;;;;;35.10;15.50;;;;;;;17.41;58.43;100503.84;7632638;32;37850;-79
2023/10/11 08:32:12;;;;;;;34.47;15.52;;;;;;;17.54;58.06;100505.00;7632550;32;37289;-81
2023/10/11 08:36:29;;;;;;;31.52;15.10;;;;;;;17.92;57.41;100503.03;7632557;32;40292;-81
2023/10/11 08:40:50;;;;;;;31.25;14.18;;;;;;;17.88;56.85;100506.69;7632672;32;40075;-82
2023/10/11 08:45:09;;;;;;;29.15;13.98;;;;;;;18.36;56.06;100493.31;7634391;32;38269;-82
2023/10/11 08:49:25;;;;;;;30.70;14.38;;;;;;;18.42;55.95;100498.75;7631581;32;36350;-84
2023/10/11 08:53:54;;;;;;;31.70;14.20;;;;;;;18.82;55.12;100493.50;7632277;32;39457;-83
2023/10/11 08:58:23;;;;;;;32.88;14.70;;;;;;;18.98;54.94;100486.53;7624099;32;39646;-70
2023/10/11 09:02:48;;;;;;;27.50;13.05;;;;;;;19.14;54.00;100482.28;7619663;32;38791;-71
2023/10/11 09:07:04;;;;;;;31.27;13.82;;;;;;;19.37;54.30;100484.22;7618776;32;36930;-70
2023/10/11 09:11:31;;;;;;;25.30;12.68;;;;;;;19.28;53.84;100486.91;7623430;32;40165;-70
2023/10/11 09:15:53;;;;;;;29.98;12.75;;;;;;;19.99;52.17;100481.56;7614802;32;39959;-68
2023/10/11 09:20:23;;;;;;;27.17;12.45;;;;;;;20.08;51.96;100484.37;7607238;32;38023;-69
2023/10/11 09:33:55;;;;;;;22.27;10.77;;;;;;;21.38;49.87;100467.13;7809911;32;180814;-66
2023/10/11 09:38:11;;;;;;;21.52;11.00;;;;;;;21.38;49.87;100467.13;7798500;32;40558;-67
2023/10/11 09:42:29;;;;;;;24.08;10.55;;;;;;;21.59;48.56;100468.44;7797974;32;38327;-66
2023/10/11 09:46:48;;;;;;;27.62;12.63;;;;;;;22.19;46.91;100466.63;7785143;32;36106;-67
2023/10/11 09:51:13;;;;;;;25.60;13.48;;;;;;;21.92;47.23;100463.13;7787014;32;39587;-66
2023/10/11 09:55:35;;;;;;;32.67;14.15;;;;;;;20.44;50.52;100472.28;7797064;32;39683;-66
2023/10/11 10:00:09;;;;;;;23.08;10.60;;;;;;;21.22;48.93;100463.25;7785590;32;38009;-78
2023/10/11 10:04:49;;;;;;;28.25;12.10;;;;;;;22.01;48.18;100458.38;7787716;32;37972;-78
2023/10/11 10:09:24;;;;;;;26.15;12.57;;;;;;;22.68;46.00;100450.34;7781163;32;39109;-79
2023/10/11 10:14:22;;;;;;;28.58;11.43;;;;;;;22.66;46.36;100450.69;7803343;32;40865;-78
2023/10/11 10:18:39;;;;;;;31.50;11.63;;;;;;;23.66;44.96;100444.41;7803239;32;37749;-79
2023/10/11 10:23:14;;;;;;;25.37;10.82;;;;;;;24.11;43.12;100432.44;7811934;32;37221;-79
2023/10/11 10:27:33;;;;;;;26.33;10.68;;;;;;;24.81;42.22;100430.63;7787211;32;39090;-80
2023/10/11 10:32:06;;;;;;;23.92;10.93;;;;;;;25.00;41.41;100422.44;7784337;32;40591;-80
2023/10/11 10:36:28;;;;;;;25.90;11.93;;;;;;;25.32;40.74;100410.59;7784030;32;37972;-80
2023/10/11 10:40:45;;;;;;;;;;;;;;;25.90;39.56;100413.69;7784885;32;37856;-80
2023/10/11 10:45:02;;;;;;;27.40;10.95;;;;;;;25.89;39.57;100400.09;7767882;32;40245;-80
2023/10/11 10:49:20;;;;;;;26.05;10.88;;;;;;;26.57;38.66;100399.72;7766302;32;39660;-80
2023/10/11 10:53:50;;;;;;;26.33;10.65;;;;;;;25.74;40.47;100387.78;7766145;32;37876;-80
2023/10/11 10:58:08;;;;;;;19.95;9.98;;;;;;;26.59;38.47;100383.37;7766281;32;37883;-80
2023/10/11 11:02:24;;;;;;;20.40;9.20;;;;;;;27.23;37.66;100366.31;7764975;32;39031;-81
2023/10/11 11:06:45;;;;;;;23.48;9.52;;;;;;;27.25;36.20;100366.78;7766090;32;39612;-80
2023/10/11 11:11:18;;;;;;;27.60;10.07;;;;;;;27.57;36.10;100351.75;7766044;32;38864;-80
2023/10/11 11:15:36;;;;;;;17.52;7.45;;;;;;;27.98;35.21;100350.06;7766050;32;37270;-80
2023/10/11 11:20:51;;;;;;;19.52;6.57;;;;;;;28.35;33.83;100346.56;7766236;32;39238;-80
2023/10/11 11:24:52;;;;;;;;;;;;;;;28.60;32.99;100346.13;7762119;32;39618;-80
2023/10/11 11:29:11;;;;;;;9.38;4.12;;;;;;;28.80;32.18;100341.97;7766230;32;38379;-81
2023/10/11 11:33:35;;;;;;;9.93;3.90;;;;;;;27.61;31.89;100347.00;7764637;32;37085;-81
2023/10/11 11:38:05;;;;;;;11.48;4.10;;;;;;;28.01;31.68;100338.09;7765957;32;39012;-80
2023/10/11 11:42:24;;;;;;;9.70;4.18;;;;;;;27.56;32.01;100342.53;7765377;32;42251;-81
2023/10/11 11:46:41;;;;;;;8.70;4.03;;;;;;;27.99;31.67;100337.62;7765584;32;38054;-80
2023/10/11 11:50:57;;;;;;;11.60;4.45;;;;;;;27.89;31.93;100336.28;7765568;32;37674;-81
2023/10/11 11:55:16;;;;;;;11.95;4.80;;;;;;;27.80;31.37;100332.13;7764681;32;39909;-80
2023/10/11 11:59:33;;;;;;;13.30;4.97;;;;;;;26.91;34.00;100332.94;7765585;32;38907;-81
2023/10/11 12:03:54;;;;;;;14.77;4.68;;;;;;;26.80;34.36;100340.31;7765448;32;38798;-80
2023/10/11 12:08:23;;;;;;;11.15;4.68;;;;;;;26.38;35.16;100327.03;7765470;32;37693;-81
2023/10/11 12:12:39;;;;;;;10.60;4.70;;;;;;;25.96;36.56;100328.50;7765495;32;39860;-81
2023/10/11 12:16:56;;;;;;;10.93;4.50;;;;;;;27.11;34.12;100321.72;7765502;32;40014;-81
2023/10/11 12:21:15;;;;;;;13.70;4.90;;;;;;;26.45;34.38;100327.19;7765256;32;38785;-81
2023/10/11 12:25:33;;;;;;;12.82;4.80;;;;;;;26.91;33.99;100321.75;7765305;32;37806;-81
2023/10/11 12:29:50;;;;;;;9.02;4.10;;;;;;;26.97;34.18;100314.69;7765135;32;39123;-80
2023/10/11 12:34:24;;;;;;;12.57;4.43;;;;;;;27.26;33.87;100306.00;7765029;32;39930;-81
2023/10/11 12:38:41;;;;;;;10.43;3.87;;;;;;;27.72;32.85;100312.41;7765110;32;37956;-81
2023/10/11 12:42:57;;;;;;;12.63;3.97;;;;;;;26.38;34.93;100316.66;7764954;32;37827;-81
2023/10/11 12:47:13;;;;;;;10.30;4.00;;;;;;;27.90;33.04;100303.47;7764963;32;39151;-81
2023/10/11 12:51:33;;;;;;;10.13;4.47;;;;;;;28.14;32.24;100301.44;7764789;32;40839;-81
2023/10/11 12:55:49;;;;;;;8.95;4.10;;;;;;;28.17;32.95;100286.66;7764837;32;38677;-81
2023/10/11 13:04:46;;;;;;;8.98;3.37;;;;;;;28.07;33.41;100283.31;7764539;32;39281;-81
2023/10/11 13:09:15;;;;;;;9.45;3.62;;;;;;;28.17;33.62;100278.25;7764799;32;40921;-82
2023/10/11 13:13:34;;;;;;;13.10;3.83;;;;;;;28.20;32.93;100266.25;7764552;32;38062;-81
2023/10/11 13:17:51;;;;;;;8.90;3.78;;;;;;;28.18;33.37;100269.47;7763363;32;36833;-81
2023/10/11 13:22:09;;;;;;;10.45;3.72;;;;;;;28.54;33.07;100258.69;7763131;32;39099;-81
2023/10/11 13:26:26;;;;;;;9.88;3.15;;;;;;;28.25;33.63;100265.94;7764416;32;39345;-81
2023/10/11 13:30:42;;;;;;;10.73;3.28;;;;;;;28.29;33.05;100244.37;7763839;32;38019;-82
2023/10/11 13:34:59;;;;;;;7.72;2.87;;;;;;;28.15;32.88;100244.19;7764112;32;37040;-81
2023/10/11 13:39:27;;;;;;;10.25;3.70;;;;;;;28.16;33.21;100248.59;7763968;32;40046;-82
2023/10/11 13:43:44;;;;;;;9.10;3.58;;;;;;;28.28;32.95;100242.75;7763807;32;39696;-81
2023/10/11 13:48:04;;;;;;;12.10;3.90;;;;;;;28.34;33.14;100241.25;7763617;32;38059;-82
2023/10/11 13:52:20;;;;;;;9.05;3.65;;;;;;;28.58;32.63;100237.13;7763672;32;37652;-81
2023/10/11 13:56:37;;;;;;;9.32;3.17;;;;;;;28.91;32.04;100231.88;7763773;32;39273;-82
2023/10/11 14:05:13;;;;;;;14.98;3.72;;;;;;;28.50;32.77;100227.00;7763642;32;36755;-81
2023/10/11 14:09:30;;;;;;;9.90;2.97;;;;;;;28.31;32.65;100236.38;7763271;32;36757;-82
2023/10/11 14:13:52;;;;;;;6.80;3.03;;;;;;;28.93;32.59;100219.06;7762973;32;39128;-82
2023/10/11 14:18:14;;;;;;;5.53;2.65;;;;;;;29.36;30.82;100215.84;7764428;32;39916;-82
2023/10/11 14:22:32;;;;;;;10.63;3.50;;;;;;;29.19;31.62;100206.06;7766940;32;38921;-82
2023/10/11 14:26:48;;;;;;;11.82;2.83;;;;;;;29.12;31.16;100200.38;7766703;32;37479;-82
2023/10/11 14:31:05;;;;;;;12.88;4.25;;;;;;;29.40;30.72;100202.63;7766451;32;39192;-82
2023/10/11 14:35:22;;;;;;;8.18;2.65;;;;;;;29.34;30.61;100198.56;7766486;32;40874;-83
2023/10/11 14:39:38;;;;;;;7.45;2.95;;;;;;;29.52;30.05;100187.44;7766468;32;37744;-82
2023/10/11 14:43:56;;;;;;;9.85;3.35;;;;;;;29.53;30.28;100178.63;7766607;32;36991;-82
2023/10/11 14:48:13;;;;;;;9.90;3.08;;;;;;;29.70;29.81;100187.53;7766522;32;38939;-82
2023/10/11 14:52:30;;;;;;;13.55;3.12;;;;;;;29.17;30.67;100195.22;7766318;32;39888;-83
2023/10/11 14:56:46;;;;;;;11.85;2.80;;;;;;;28.88;30.83;100184.94;7766253;32;37850;-83
2023/10/11 15:01:07;;;;;;;8.63;3.08;;;;;;;29.18;30.80;100174.41;7766156;32;36880;-82
2023/10/11 15:05:29;;;;;;;10.20;2.67;;;;;;;31.47;27.22;100167.03;7766237;32;39943;-83
2023/10/11 15:09:46;;;;;;;8.57;3.07;;;;;;;32.80;24.91;100158.00;7766255;32;40013;-83
2023/10/11 15:14:03;;;;;;;8.32;2.87;;;;;;;30.76;27.83;100165.06;7766099;32;37828;-82
2023/10/11 15:18:20;;;;;;;7.95;2.70;;;;;;;29.75;29.23;100167.50;7765809;32;37285;-83
2023/10/11 15:22:37;;;;;;;8.52;2.78;;;;;;;28.95;30.84;100171.75;7766090;32;39221;-83
2023/10/11 15:26:53;;;;;;;12.77;3.10;;;;;;;28.67;31.02;100174.31;7765949;32;40839;-83
2023/10/11 15:31:10;;;;;;;13.25;3.20;;;;;;;28.34;31.57;100170.31;7765572;32;37911;-83
2023/10/11 15:35:26;;;;;;;7.62;2.85;;;;;;;28.16;33.17;100175.75;7766072;32;36801;-83
2023/10/11 15:39:43;;;;;;;10.02;3.22;;;;;;;28.02;34.23;100179.97;7765882;32;39934;-83
2023/10/11 15:43:59;;;;;;;12.77;3.22;;;;;;;27.90;34.62;100183.78;7765806;32;40009;-83
2023/10/11 15:48:15;;;;;;;11.07;3.90;;;;;;;27.94;34.91;100185.87;7765629;32;38124;-83
2023/10/11 15:52:32;;;;;;;10.00;3.42;;;;;;;27.68;35.07;100185.53;7765577;32;37046;-83
2023/10/11 15:56:48;;;;;;;14.80;3.15;;;;;;;26.87;36.72;100180.22;7765650;32;39052;-83
2023/10/11 16:01:07;;;;;;;12.73;3.60;;;;;;;26.21;38.26;100183.75;7765423;32;39972;-82
2023/10/11 16:05:25;;;;;;;15.15;3.55;;;;;;;26.13;38.21;100182.00;7765143;32;38809;-82
2023/10/11 16:09:41;;;;;;;8.52;3.28;;;;;;;25.48;39.27;100186.16;7765278;32;37684;-83
2023/10/11 16:13:58;;;;;;;10.35;3.47;;;;;;;25.06;39.99;100192.31;7765085;32;39151;-83
2023/10/11 16:18:14;;;;;;;8.40;3.60;;;;;;;25.02;40.32;100196.97;7765274;32;39777;-82
2023/10/11 16:22:37;;;;;;;9.00;3.30;;;;;;;24.56;41.33;100193.81;7765157;32;38001;-83
2023/10/11 16:26:53;;;;;;;;;;;;;;;24.10;42.74;100205.22;7764490;32;37568;-82
2023/10/11 16:31:12;;;;;;;9.60;3.65;;;;;;;23.88;43.35;100212.12;7765326;32;39439;-83
2023/10/11 16:35:29;;;;;;;10.38;3.40;;;;;;;23.53;43.98;100209.03;7765129;32;40007;-83
2023/10/11 16:39:46;;;;;;;10.10;3.47;;;;;;;23.65;43.88;100208.22;7764276;32;38017;-82
2023/10/11 16:44:02;;;;;;;10.10;4.30;;;;;;;23.24;44.92;100217.25;7765094;32;36685;-82
2023/10/11 16:48:19;;;;;;;11.93;4.18;;;;;;;23.13;45.38;100209.72;7764945;32;39156;-82
2023/10/11 16:52:35;;;;;;;9.75;3.78;;;;;;;23.00;45.32;100214.44;7764730;32;40919;-82
2023/10/11 16:56:53;;;;;;;10.90;4.20;;;;;;;23.11;44.72;100221.22;7764778;32;38749;-82
2023/10/11 17:01:11;;;;;;;10.43;4.10;;;;;;;22.83;45.28;100227.37;7764895;32;36170;-82
2023/10/11 17:05:38;;;;;;;15.07;3.90;;;;;;;22.74;45.68;100223.87;7764810;32;40194;-82
2023/10/11 17:09:54;;;;;;;10.35;3.95;;;;;;;22.61;45.94;100233.31;7764762;32;41293;-82
2023/10/11 17:14:11;;;;;;;10.70;3.80;;;;;;;22.62;46.10;100235.78;7764342;32;38719;-82
2023/10/11 17:18:29;;;;;;;12.45;5.35;;;;;;;22.82;45.67;100233.28;7764458;32;37036;-83
2023/10/11 17:22:50;;;;;;;14.55;4.40;;;;;;;22.68;45.81;100233.59;7764442;32;38214;-83
2023/10/11 17:27:06;;;;;;;12.35;4.12;;;;;;;22.53;46.35;100234.25;7764248;32;39835;-82
2023/10/11 17:31:23;;;;;;;19.62;4.25;;;;;;;22.43;45.98;100244.59;7763921;32;38053;-82
2023/10/11 17:35:40;;;;;;;13.35;3.50;;;;;;;22.36;46.69;100240.78;7764157;32;37840;-82
2023/10/11 17:39:56;;;;;;;10.35;4.95;;;;;;;22.31;46.91;100236.22;7763980;32;39949;-82
2023/10/11 17:44:14;;;;;;;9.73;4.18;;;;;;;22.51;46.06;100226.25;7762660;32;40053;-81
2023/10/11 17:48:33;;;;;;;9.10;3.60;;;;;;;22.47;46.10;100225.28;7763712;32;38243;-83
2023/10/11 17:52:51;;;;;;;10.18;3.62;;;;;;;22.52;45.87;100224.28;7764675;32;35874;-82
2023/10/11 17:57:07;;;;;;;8.50;3.95;;;;;;;22.37;46.02;100226.53;7767312;32;39315;-82
2023/10/11 18:01:24;;;;;;;10.63;3.30;;;;;;;22.29;46.32;100230.22;7766981;32;40811;-83
2023/10/11 18:05:40;;;;;;;14.90;4.20;;;;;;;22.42;45.93;100229.12;7766857;32;38764;-82
2023/10/11 18:09:57;;;;;;;9.68;3.45;;;;;;;22.07;46.68;100226.59;7766872;32;37172;-81
2023/10/11 18:14:13;;;;;;;8.75;3.85;;;;;;;22.02;46.33;100226.00;7766766;32;39183;-82
2023/10/11 18:18:30;;;;;;;10.57;4.15;;;;;;;22.18;46.56;100220.63;7766738;32;39955;-82
2023/10/11 18:22:48;;;;;;;15.77;4.18;;;;;;;21.75;47.47;100215.06;7766643;32;37966;-81
2023/10/11 18:27:04;;;;;;;14.45;4.40;;;;;;;21.83;47.20;100215.34;7766787;32;37160;-82
2023/10/11 18:31:24;;;;;;;10.35;4.20;;;;;;;21.81;47.43;100209.34;7766523;32;39246;-81
2023/10/11 18:35:41;;;;;;;9.52;3.83;;;;;;;21.62;47.56;100205.03;7766517;32;39938;-81
2023/10/11 18:39:58;;;;;;;6.75;3.60;;;;;;;21.57;47.80;100213.56;7766440;32;37910;-81
2023/10/11 18:44:15;;;;;;;14.23;4.07;;;;;;;21.47;47.92;100212.00;7766455;32;36892;-81
2023/10/11 18:48:32;;;;;;;12.20;4.20;;;;;;;21.47;47.98;100214.78;7766359;32;40034;-82
2023/10/11 18:52:50;;;;;;;11.60;3.85;;;;;;;21.39;48.05;100218.38;7766338;32;39871;-82
2023/10/11 18:57:06;;;;;;;13.73;4.45;;;;;;;21.31;48.68;100211.72;7765199;32;38515;-82
2023/10/11 19:01:23;;;;;;;10.02;4.22;;;;;;;20.97;49.70;100213.50;7766251;32;37007;-82
2023/10/11 19:05:39;;;;;;;11.35;4.35;;;;;;;21.22;49.23;100212.91;7766016;32;39457;-81
2023/10/11 19:09:56;;;;;;;10.35;4.43;;;;;;;20.93;49.95;100217.25;7766073;32;40025;-82
2023/10/11 19:14:13;;;;;;;8.38;4.15;;;;;;;20.70;50.48;100222.22;7766050;32;38650;-82
2023/10/11 19:18:29;;;;;;;9.18;3.87;;;;;;;20.26;51.99;100225.84;7766131;32;37179;-82
2023/10/11 19:22:52;;;;;;;6.82;4.07;;;;;;;20.54;51.23;100222.72;7766021;32;39953;-82
2023/10/11 19:27:11;;;;;;;10.18;4.47;;;;;;;20.04;52.62;100226.81;7766019;32;40004;-81
2023/10/11 19:31:28;;;;;;;12.07;4.97;;;;;;;20.11;52.46;100237.41;7765719;32;38880;-82
2023/10/11 19:35:44;;;;;;;11.73;4.65;;;;;;;19.88;53.16;100231.97;7765807;32;37510;-82
2023/10/11 19:40:03;;;;;;;11.43;4.93;;;;;;;19.89;53.14;100225.31;7765902;32;39876;-82
2023/10/11 19:44:22;;;;;;;9.40;4.47;;;;;;;19.80;53.37;100230.03;7765829;32;38967;-82
2023/10/11 19:48:43;;;;;;;10.15;5.07;;;;;;;19.78;53.55;100224.03;7765754;32;38797;-81
2023/10/11 19:52:59;;;;;;;10.45;5.10;;;;;;;19.75;53.65;100230.19;7765687;32;37037;-82
2023/10/11 19:57:15;;;;;;;12.70;4.78;;;;;;;19.37;54.69;100230.72;7765650;32;39186;-81
2023/10/11 20:01:32;;;;;;;9.27;4.80;;;;;;;19.46;54.40;100226.03;7765541;32;40067;-81
2023/10/11 20:05:49;;;;;;;13.25;5.07;;;;;;;19.45;54.50;100220.81;7765537;32;38583;-81
2023/10/11 20:10:05;;;;;;;11.15;4.65;;;;;;;19.45;54.45;100218.84;7764256;32;37773;-81
2023/10/11 20:14:22;;;;;;;9.27;4.70;;;;;;;19.49;54.33;100219.84;7764588;32;40001;-81
2023/10/11 20:18:44;;;;;;;10.40;4.82;;;;;;;19.35;54.71;100216.41;7765233;32;40541;-81
2023/10/11 20:23:01;;;;;;;9.57;4.90;;;;;;;19.40;54.64;100219.00;7751673;32;38867;-81
2023/10/11 20:27:17;;;;;;;12.48;4.70;;;;;;;19.22;55.10;100217.34;7765231;32;37712;-82
2023/10/11 20:31:33;;;;;;;11.43;4.62;;;;;;;19.24;55.06;100220.59;7765095;32;39281;-81
2023/10/11 20:35:50;;;;;;;11.07;4.68;;;;;;;19.18;55.04;100222.69;7765069;32;39981;-81
2023/10/11 20:40:14;;;;;;;11.12;4.75;;;;;;;19.13;55.30;100220.88;7765021;32;37925;-81